Time;durP1;ratioP1;P1;durP2;ratioP2;P2;SDS_P1;SDS_P2;PMS_P1;PMS_P2;Temp;Humidity;BMP_temperature;BMP_pressure;BME280_temperature;BME280_humidity;BME280_pressure;Samples;Min_cycle;Max_cycle;Signal;HPM_P1;HPM_P2
2022/12/21 00:00:53;;;;;;;;;;;3.20;99.90;;;;;;5066648;28;19974;-68
2022/12/21 00:03:20;;;;;;;;;;;3.20;99.90;;;;;;5066257;28;20070;-68
2022/12/21 00:05:46;;;;;;;;;;;3.20;99.90;;;;;;5066037;28;19984;-68
2022/12/21 00:08:14;;;;;;;;;;;3.20;99.90;;;;;;5065766;28;19988;-67
2022/12/21 00:10:41;;;;;;;;;;;3.30;99.90;;;;;;5066551;28;19928;-68
2022/12/21 00:13:07;;;;;;;;;;;3.30;99.90;;;;;;5066609;28;20008;-68
2022/12/21 00:15:34;;;;;;;;;;;3.40;99.90;;;;;;5066311;28;20239;-68
2022/12/21 00:18:01;;;;;;;;;;;3.30;99.90;;;;;;5065348;28;19963;-67
2022/12/21 00:20:27;;;;;;;;;;;3.40;99.90;;;;;;5066366;28;19952;-67
2022/12/21 00:22:54;;;;;;;;;;;3.30;99.90;;;;;;5065569;28;19992;-67
2022/12/21 00:25:22;;;;;;;;;;;3.30;99.90;;;;;;5065884;28;20167;-67
2022/12/21 00:27:49;;;;;;;;;;;3.30;99.90;;;;;;5046107;28;19935;-68
2022/12/21 00:30:16;;;;;;;;;;;3.40;99.90;;;;;;5043416;28;19995;-67
2022/12/21 00:32:43;;;;;;;;;;;3.40;99.90;;;;;;5046110;28;19992;-68
2022/12/21 00:35:10;;;;;;;;;;;3.40;99.90;;;;;;5045644;28;20004;-68
2022/12/21 00:37:39;;;;;;;;;;;3.40;99.90;;;;;;5045391;28;20112;-68
2022/12/21 00:40:06;;;;;;;;;;;3.40;99.90;;;;;;5045915;28;19963;-68
2022/12/21 00:42:34;;;;;;;;;;;3.40;99.90;;;;;;5050892;28;20173;-67
2022/12/21 00:45:01;;;;;;;;;;;3.50;99.90;;;;;;5065505;28;19927;-67
2022/12/21 00:47:27;;;;;;;;;;;3.40;99.90;;;;;;5065101;28;19927;-67
2022/12/21 00:49:54;;;;;;;;;;;3.40;99.90;;;;;;5065668;28;20161;-68
2022/12/21 00:52:20;;;;;;;;;;;3.40;99.90;;;;;;5065288;28;19956;-68
2022/12/21 00:54:47;;;;;;;;;;;3.40;99.90;;;;;;5065588;28;19920;-68
2022/12/21 00:57:14;;;;;;;;;;;3.40;99.90;;;;;;5064691;28;20228;-68
2022/12/21 00:59:42;;;;;;;;;;;3.40;99.90;;;;;;5065452;28;19956;-68
2022/12/21 01:02:08;;;;;;;;;;;3.40;99.90;;;;;;5065272;28;19971;-67
2022/12/21 01:04:35;;;;;;;;;;;3.40;99.90;;;;;;5065475;28;19956;-67
2022/12/21 01:07:02;;;;;;;;;;;3.40;99.90;;;;;;5063925;28;19920;-68
2022/12/21 01:09:28;;;;;;;;;;;3.40;99.90;;;;;;5064698;28;19983;-67
2022/12/21 01:11:55;;;;;;;;;;;3.40;99.90;;;;;;5064177;28;19963;-68
2022/12/21 01:14:22;;;;;;;;;;;3.40;99.90;;;;;;5064129;28;19956;-68
2022/12/21 01:16:50;;;;;;;;;;;3.40;99.90;;;;;;5064177;28;20116;-68
2022/12/21 01:19:16;;;;;;;;;;;3.40;99.90;;;;;;5064694;28;19927;-67
2022/12/21 01:21:43;;;;;;;;;;;3.40;99.90;;;;;;5064746;28;19988;-68
2022/12/21 01:24:11;;;;;;;;;;;3.50;99.90;;;;;;5065044;28;19956;-68
2022/12/21 01:26:38;;;;;;;;;;;3.50;99.90;;;;;;5064553;28;19920;-68
2022/12/21 01:29:05;;;;;;;;;;;3.50;99.90;;;;;;5065064;28;19967;-68
2022/12/21 01:31:31;;;;;;;;;;;3.40;99.90;;;;;;5065122;28;19956;-67
2022/12/21 01:33:59;;;;;;;;;;;3.40;99.90;;;;;;5064661;28;20127;-69
2022/12/21 01:36:26;;;;;;;;;;;3.40;99.90;;;;;;5064008;28;20146;-68
2022/12/21 01:38:53;;;;;;;;;;;3.50;99.90;;;;;;5064324;28;19929;-67
2022/12/21 01:41:21;;;;;;;;;;;3.50;99.90;;;;;;5064878;28;19928;-69
2022/12/21 01:43:50;;;;;;;;;;;3.50;99.90;;;;;;5064672;28;19921;-68
2022/12/21 01:46:25;;;;;;;;;;;3.50;99.90;;;;;;5063711;28;19983;-68
2022/12/21 01:48:57;;;;;;;;;;;3.60;99.90;;;;;;5064495;28;19984;-68
2022/12/21 01:51:25;;;;;;;;;;;3.70;99.90;;;;;;5064348;28;19989;-67
2022/12/21 01:53:53;;;;;;;;;;;3.70;99.90;;;;;;5064580;28;20007;-68
2022/12/21 01:56:22;;;;;;;;;;;3.70;99.90;;;;;;5063834;28;19920;-68
2022/12/21 01:58:49;;;;;;;;;;;3.70;99.90;;;;;;5064370;28;19921;-68
2022/12/21 02:01:15;;;;;;;;;;;3.70;99.90;;;;;;5064437;28;19992;-68
2022/12/21 02:03:44;;;;;;;;;;;3.80;99.90;;;;;;5064076;28;19991;-68
2022/12/21 02:06:16;;;;;;;;;;;3.80;99.90;;;;;;5061002;28;19927;-69
2022/12/21 02:08:44;;;;;;;;;;;3.90;99.90;;;;;;5064211;28;19984;-68
2022/12/21 02:11:11;;;;;;;;;;;4.00;99.90;;;;;;5064414;28;19927;-68
2022/12/21 02:13:40;;;;;;;;;;;4.00;99.90;;;;;;5063899;28;20278;-68
2022/12/21 02:16:14;;;;;;;;;;;4.10;99.90;;;;;;5063130;28;19924;-68
2022/12/21 02:18:52;;;;;;;;;;;4.20;99.90;;;;;;5063887;28;19927;-68
2022/12/21 02:21:22;;;;;;;;;;;4.30;99.90;;;;;;5063764;28;20252;-67
2022/12/21 02:24:12;;;;;;;;;;;4.50;99.90;;;;;;5064028;28;20113;-68
2022/12/21 02:26:57;;;;;;;;;;;4.70;99.90;;;;;;5063065;28;19983;-68
2022/12/21 02:29:36;;;;;;;;;;;4.90;99.90;;;;;;5063856;28;19985;-68
2022/12/21 02:32:07;;;;;;;;;;;5.10;99.90;;;;;;5064060;28;19988;-67
2022/12/21 02:34:35;;;;;;;;;;;5.10;99.90;;;;;;5063855;28;19987;-68
2022/12/21 02:37:07;;;;;;;;;;;5.10;99.90;;;;;;5062533;28;19927;-67
2022/12/21 02:39:35;;;;;;;;;;;5.10;99.90;;;;;;5063691;28;19921;-67
2022/12/21 02:42:03;;;;;;;;;;;5.10;99.90;;;;;;5063493;28;20204;-68
2022/12/21 02:44:36;;;;;;;;;;;5.20;99.90;;;;;;5063832;28;19921;-67
2022/12/21 02:47:04;;;;;;;;;;;5.30;99.90;;;;;;5062824;28;20254;-67
2022/12/21 02:49:38;;;;;;;;;;;5.30;99.90;;;;;;5062369;28;19988;-68
2022/12/21 02:52:07;;;;;;;;;;;5.30;99.90;;;;;;5063349;28;19980;-68
2022/12/21 02:54:34;;;;;;;;;;;5.30;99.90;;;;;;5063349;28;20004;-68
2022/12/21 02:57:01;;;;;;;;;;;5.20;99.90;;;;;;5063044;28;19984;-68
2022/12/21 02:59:29;;;;;;;;;;;5.30;99.90;;;;;;5062560;28;19988;-67
2022/12/21 03:02:07;;;;;;;;;;;5.30;99.90;;;;;;5063376;28;19928;-68
2022/12/21 03:04:41;;;;;;;;;;;5.30;99.90;;;;;;5063435;28;19929;-68
2022/12/21 03:07:18;;;;;;;;;;;5.40;99.90;;;;;;5063153;28;19928;-68
2022/12/21 03:09:51;;;;;;;;;;;5.50;99.90;;;;;;5063491;28;19987;-68
2022/12/21 03:12:21;;;;;;;;;;;5.50;99.90;;;;;;5063225;28;19988;-68
2022/12/21 03:14:52;;;;;;;;;;;5.50;99.90;;;;;;5063157;28;19971;-68
2022/12/21 03:17:23;;;;;;;;;;;5.50;99.90;;;;;;5062727;28;19987;-68
2022/12/21 03:19:55;;;;;;;;;;;5.50;99.90;;;;;;5062829;28;19988;-68
2022/12/21 03:22:25;;;;;;;;;;;5.50;99.90;;;;;;5062336;28;19996;-67
2022/12/21 03:24:56;;;;;;;;;;;5.50;99.90;;;;;;5062826;28;20132;-67
2022/12/21 03:27:27;;;;;;;;;;;5.50;99.90;;;;;;5062323;28;19951;-67
2022/12/21 03:29:59;;;;;;;;;;;5.60;99.90;;;;;;5062826;28;19983;-68
2022/12/21 03:32:29;;;;;;;;;;;5.60;99.90;;;;;;5063277;28;19920;-68
2022/12/21 03:34:58;;;;;;;;;;;5.60;99.90;;;;;;5062739;28;20239;-67
2022/12/21 03:37:27;;;;;;;;;;;5.60;99.90;;;;;;5062490;28;19921;-67
2022/12/21 03:39:56;;;;;;;;;;;5.70;99.90;;;;;;5063081;28;19951;-68
2022/12/21 03:42:25;;;;;;;;;;;5.70;99.90;;;;;;5062767;28;19951;-68
2022/12/21 03:44:55;;;;;;;;;;;5.80;99.90;;;;;;5063161;28;20105;-68
2022/12/21 03:47:24;;;;;;;;;;;5.80;99.90;;;;;;5062317;28;19952;-67
2022/12/21 03:49:52;;;;;;;;;;;5.70;99.90;;;;;;5062976;28;19952;-68
2022/12/21 03:52:21;;;;;;;;;;;5.70;99.90;;;;;;5062764;28;20204;-68
2022/12/21 03:54:52;;;;;;;;;;;5.60;99.90;;;;;;5062797;28;19927;-68
2022/12/21 03:57:19;;;;;;;;;;;5.60;99.90;;;;;;5062474;28;19924;-68
2022/12/21 03:59:49;;;;;;;;;;;5.50;99.90;;;;;;5062691;28;20238;-68
2022/12/21 04:02:17;;;;;;;;;;;5.50;99.90;;;;;;5066638;28;20159;-68
2022/12/21 04:04:49;;;;;;;;;;;5.50;99.90;;;;;;5066484;28;20167;-68
2022/12/21 04:07:17;;;;;;;;;;;5.50;99.90;;;;;;5065908;28;19984;-67
2022/12/21 04:09:45;;;;;;;;;;;5.40;99.90;;;;;;5066185;28;19983;-67
2022/12/21 04:14:57;;;;;;;;;;;5.30;99.90;;;;;;5066297;28;19955;-67
2022/12/21 04:17:23;;;;;;;;;;;5.30;99.90;;;;;;5065955;28;19952;-67
2022/12/21 04:19:58;;;;;;;;;;;5.30;99.90;;;;;;5065908;28;19952;-67
2022/12/21 04:28:09;;;;;;;;;;;5.20;99.90;;;;;;5045384;28;19928;-68
2022/12/21 04:30:37;;;;;;;;;;;5.20;99.90;;;;;;5046229;28;19959;-68
2022/12/21 04:33:04;;;;;;;;;;;5.20;99.90;;;;;;5046219;28;19925;-68
2022/12/21 04:35:30;;;;;;;;;;;5.20;99.90;;;;;;5045942;28;19921;-68
2022/12/21 04:37:56;;;;;;;;;;;5.20;99.90;;;;;;5056186;28;19984;-68
2022/12/21 04:40:24;;;;;;;;;;;5.20;99.90;;;;;;5066079;28;19917;-68
2022/12/21 04:42:50;;;;;;;;;;;5.20;99.90;;;;;;5065990;28;19921;-67
2022/12/21 04:45:17;;;;;;;;;;;5.10;99.90;;;;;;5065568;28;20199;-70
2022/12/21 04:47:44;;;;;;;;;;;5.10;99.90;;;;;;5065007;28;19960;-68
2022/12/21 04:50:11;;;;;;;;;;;5.00;99.90;;;;;;5065633;28;19929;-68
2022/12/21 04:52:37;;;;;;;;;;;5.00;99.90;;;;;;5056762;28;20131;-68
2022/12/21 04:55:04;;;;;;;;;;;5.00;99.90;;;;;;5065696;28;19999;-68
2022/12/21 04:57:32;;;;;;;;;;;5.00;99.90;;;;;;5065072;28;19927;-68
2022/12/21 04:59:59;;;;;;;;;;;4.90;99.90;;;;;;5065349;28;19952;-68
2022/12/21 05:02:27;;;;;;;;;;;4.90;99.90;;;;;;5065153;28;19940;-68
2022/12/21 05:04:54;;;;;;;;;;;4.90;99.90;;;;;;5065459;28;19920;-68
2022/12/21 05:07:20;;;;;;;;;;;4.90;99.90;;;;;;5064922;28;19994;-68
2022/12/21 05:09:47;;;;;;;;;;;5.10;99.90;;;;;;5065475;28;19921;-68
2022/12/21 05:12:13;;;;;;;;;;;5.20;99.90;;;;;;5064492;28;19921;-68
2022/12/21 05:14:41;;;;;;;;;;;5.20;99.90;;;;;;5065199;28;20001;-68
2022/12/21 05:17:08;;;;;;;;;;;5.30;99.90;;;;;;5064407;28;19975;-68
2022/12/21 05:19:35;;;;;;;;;;;5.30;99.90;;;;;;5064849;28;20251;-68
2022/12/21 05:22:01;;;;;;;;;;;5.40;99.90;;;;;;5064421;28;20116;-68
2022/12/21 05:24:28;;;;;;;;;;;5.50;99.90;;;;;;5052492;28;19992;-68
2022/12/21 05:26:55;;;;;;;;;;;5.60;99.90;;;;;;5064414;28;20015;-67
2022/12/21 05:29:21;;;;;;;;;;;5.70;99.90;;;;;;5064706;28;19955;-68
2022/12/21 05:31:49;;;;;;;;;;;5.80;99.90;;;;;;5064561;28;19963;-68
2022/12/21 05:34:16;;;;;;;;;;;5.80;99.90;;;;;;5064679;28;19921;-68
2022/12/21 05:36:42;;;;;;;;;;;5.80;99.90;;;;;;5063453;28;19921;-68
2022/12/21 05:39:09;;;;;;;;;;;5.90;99.90;;;;;;5064676;28;20157;-68
2022/12/21 05:41:35;;;;;;;;;;;6.00;99.90;;;;;;5065169;28;19955;-68
2022/12/21 05:44:02;;;;;;;;;;;6.00;99.90;;;;;;5065418;28;19956;-68
2022/12/21 05:46:29;;;;;;;;;;;6.00;99.90;;;;;;5064571;28;19920;-68
2022/12/21 05:48:57;;;;;;;;;;;6.00;99.90;;;;;;5064454;28;19959;-68
2022/12/21 05:51:24;;;;;;;;;;;6.10;99.90;;;;;;5064440;28;19948;-68
2022/12/21 05:53:50;;;;;;;;;;;6.10;99.90;;;;;;5064395;28;20108;-67
2022/12/21 05:56:17;;;;;;;;;;;6.10;99.90;;;;;;5063749;28;19984;-67
2022/12/21 05:58:43;;;;;;;;;;;6.20;99.90;;;;;;5063993;28;19988;-68
2022/12/21 06:01:11;;;;;;;;;;;6.20;99.90;;;;;;5064146;28;19959;-68
2022/12/21 06:03:38;;;;;;;;;;;6.20;99.90;;;;;;5064128;28;19956;-71
2022/12/21 06:06:07;;;;;;;;;;;6.20;99.90;;;;;;5059925;28;19929;-68
2022/12/21 06:08:34;;;;;;;;;;;6.30;99.90;;;;;;5064218;28;19999;-71
2022/12/21 06:11:05;;;;;;;;;;;6.30;99.90;;;;;;5063998;28;19921;-68
2022/12/21 06:13:31;;;;;;;;;;;6.40;99.90;;;;;;5043844;28;19992;-67
2022/12/21 06:16:01;;;;;;;;;;;6.40;99.90;;;;;;5043416;28;19991;-68
2022/12/21 06:18:28;;;;;;;;;;;6.40;99.90;;;;;;5055123;28;19921;-67
2022/12/21 06:20:54;;;;;;;;;;;6.50;99.90;;;;;;5063770;28;20175;-67
2022/12/21 06:23:22;;;;;;;;;;;6.50;99.90;;;;;;5062584;28;19984;-68
2022/12/21 06:25:49;;;;;;;;;;;6.50;99.90;;;;;;5063340;28;19953;-67
2022/12/21 06:28:16;;;;;;;;;;;6.60;99.90;;;;;;5063543;28;20172;-67
2022/12/21 06:30:42;;;;;;;;;;;6.60;99.90;;;;;;5063142;28;19921;-67
2022/12/21 06:33:09;;;;;;;;;;;6.60;99.90;;;;;;5063405;28;19955;-68
2022/12/21 06:35:36;;;;;;;;;;;6.70;99.90;;;;;;5063686;28;19952;-69
2022/12/21 06:38:02;;;;;;;;;;;6.70;99.90;;;;;;5063011;28;19955;-67
2022/12/21 06:40:30;;;;;;;;;;;6.70;99.90;;;;;;5059996;28;19948;-68
2022/12/21 06:42:57;;;;;;;;;;;6.70;99.90;;;;;;5053047;28;19920;-68
2022/12/21 06:45:23;;;;;;;;;;;6.80;99.90;;;;;;5059623;28;19959;-68
2022/12/21 06:47:52;;;;;;;;;;;6.80;99.90;;;;;;5062486;28;19927;-68
2022/12/21 06:50:19;;;;;;;;;;;6.80;99.90;;;;;;5063498;28;19921;-67
2022/12/21 06:52:47;;;;;;;;;;;6.80;99.90;;;;;;5062947;28;20168;-68
2022/12/21 06:55:15;;;;;;;;;;;6.80;99.90;;;;;;5058088;28;20209;-68
2022/12/21 06:57:43;;;;;;;;;;;6.90;99.90;;;;;;5061754;28;19987;-68
2022/12/21 07:00:11;;;;;;;;;;;6.80;99.90;;;;;;5063159;28;19984;-68
2022/12/21 07:02:37;;;;;;;;;;;6.80;99.90;;;;;;5053522;28;19968;-68
2022/12/21 07:05:04;;;;;;;;;;;6.80;99.90;;;;;;5058935;28;19984;-68
2022/12/21 07:07:31;;;;;;;;;;;6.70;99.90;;;;;;5062056;28;19992;-68
2022/12/21 07:09:57;;;;;;;;;;;6.60;99.90;;;;;;5063269;28;19927;-68
2022/12/21 07:12:24;;;;;;;;;;;6.60;99.90;;;;;;5062695;28;19984;-68
2022/12/21 07:14:52;;;;;;;;;;;6.60;99.90;;;;;;5063142;28;19921;-68
2022/12/21 07:17:18;;;;;;;;;;;6.60;99.90;;;;;;5062082;28;19921;-74
2022/12/21 07:19:45;;;;;;;;;;;6.50;99.90;;;;;;5062314;28;19928;-68
2022/12/21 07:22:12;;;;;;;;;;;6.40;99.90;;;;;;5062919;28;20187;-68
2022/12/21 07:24:38;;;;;;;;;;;6.40;99.90;;;;;;5063032;28;19952;-68
2022/12/21 07:27:05;;;;;;;;;;;6.40;99.90;;;;;;5062640;28;19952;-68
2022/12/21 07:29:31;;;;;;;;;;;6.40;99.90;;;;;;5062705;28;20185;-68
2022/12/21 07:31:59;;;;;;;;;;;6.40;99.90;;;;;;5062580;28;19952;-68
2022/12/21 07:34:26;;;;;;;;;;;6.40;99.90;;;;;;5062765;28;19952;-69
2022/12/21 07:36:53;;;;;;;;;;;6.40;99.90;;;;;;5065830;28;19956;-68
2022/12/21 07:39:19;;;;;;;;;;;6.30;99.90;;;;;;5066839;28;19988;-68
2022/12/21 07:41:46;;;;;;;;;;;6.30;99.90;;;;;;5066731;28;20112;-68
2022/12/21 07:44:14;;;;;;;;;;;6.20;99.90;;;;;;5066369;28;20223;-68
2022/12/21 07:46:40;;;;;;;;;;;6.20;99.90;;;;;;5065586;28;20212;-67
2022/12/21 07:55:15;;;;;;;;;;;6.20;99.90;;;;;;5066481;28;19916;-67
2022/12/21 07:57:44;;;;;;;;;;;6.10;99.90;;;;;;5065981;28;19983;-68
2022/12/21 08:00:11;;;;;;;;;;;6.10;99.90;;;;;;5065832;28;19925;-68
2022/12/21 08:02:38;;;;;;;;;;;6.10;99.90;;;;;;5066666;28;20175;-68
2022/12/21 08:05:04;;;;;;;;;;;6.10;99.90;;;;;;5066112;28;20000;-68
2022/12/21 08:07:32;;;;;;;;;;;6.10;99.90;;;;;;5065244;28;20271;-68
2022/12/21 08:09:58;;;;;;;;;;;6.20;99.90;;;;;;5065931;28;20260;-68
2022/12/21 08:12:26;;;;;;;;;;;6.20;99.90;;;;;;5066406;28;19960;-68
2022/12/21 08:14:53;;;;;;;;;;;6.20;99.90;;;;;;5061031;28;19955;-69
2022/12/21 08:17:19;;;;;;;;;;;6.20;99.90;;;;;;5065035;28;20227;-68
2022/12/21 08:19:46;;;;;;;;;;;6.30;99.90;;;;;;5065277;28;19991;-68
2022/12/21 08:22:13;;;;;;;;;;;6.30;99.90;;;;;;5066178;28;19984;-68
2022/12/21 08:24:39;;;;;;;;;;;6.20;99.90;;;;;;5065883;28;19988;-68
2022/12/21 08:27:06;;;;;;;;;;;6.30;99.90;;;;;;5065081;28;19955;-68
2022/12/21 08:29:34;;;;;;;;;;;6.30;99.90;;;;;;5065694;28;19921;-68
2022/12/21 08:32:00;;;;;;;;;;;6.30;99.90;;;;;;5066109;28;19987;-68
2022/12/21 08:34:27;;;;;;;;;;;6.30;99.90;;;;;;5065950;28;19948;-67
2022/12/21 08:36:54;;;;;;;;;;;6.30;99.90;;;;;;5064660;28;20001;-68
2022/12/21 08:39:20;;;;;;;;;;;6.30;99.90;;;;;;5065893;28;19988;-68
2022/12/21 08:41:47;;;;;;;;;;;6.30;99.90;;;;;;5064437;28;20170;-68
2022/12/21 08:44:14;;;;;;;;;;;6.30;99.90;;;;;;5064225;28;19952;-68
2022/12/21 08:46:42;;;;;;;;;;;6.30;99.90;;;;;;5063426;28;19927;-67
2022/12/21 08:49:08;;;;;;;;;;;6.30;99.90;;;;;;5064647;28;19944;-68
2022/12/21 08:51:37;;;;;;;;;;;6.30;99.90;;;;;;5065135;28;20284;-68
2022/12/21 08:54:04;;;;;;;;;;;6.40;99.90;;;;;;5065675;28;20013;-67
2022/12/21 08:56:31;;;;;;;;;;;6.30;99.90;;;;;;5064247;28;19921;-68
2022/12/21 08:59:00;;;;;;;;;;;6.40;99.90;;;;;;5063726;28;20235;-68
2022/12/21 09:01:27;;;;;;;;;;;6.40;99.90;;;;;;5055739;28;19983;-68
2022/12/21 09:03:55;;;;;;;;;;;6.30;99.90;;;;;;5064986;28;19927;-68
2022/12/21 09:06:21;;;;;;;;;;;6.30;99.90;;;;;;5064323;28;19956;-68
2022/12/21 09:08:48;;;;;;;;;;;6.30;99.90;;;;;;5065016;28;20223;-68
2022/12/21 09:11:16;;;;;;;;;;;6.30;99.90;;;;;;5065223;28;19921;-67
2022/12/21 09:13:43;;;;;;;;;;;6.30;99.90;;;;;;5064997;28;19920;-68
2022/12/21 09:16:12;;;;;;;;;;;6.40;99.90;;;;;;5063883;28;19928;-68
2022/12/21 09:18:39;;;;;;;;;;;6.40;99.90;;;;;;5064931;28;19921;-68
2022/12/21 09:21:07;;;;;;;;;;;6.40;99.90;;;;;;5056451;28;19959;-68
2022/12/21 09:23:33;;;;;;;;;;;6.40;99.90;;;;;;5065120;28;19928;-67
2022/12/21 09:26:01;;;;;;;;;;;6.40;99.90;;;;;;5063963;28;20116;-67
2022/12/21 09:28:28;;;;;;;;;;;6.50;99.90;;;;;;5064798;28;19952;-68
2022/12/21 09:30:55;;;;;;;;;;;6.50;99.90;;;;;;5064686;28;20159;-68
2022/12/21 09:33:23;;;;;;;;;;;6.50;99.90;;;;;;5064670;28;19984;-68
2022/12/21 09:35:51;;;;;;;;;;;6.50;99.90;;;;;;5058240;28;19921;-68
2022/12/21 09:38:19;;;;;;;;;;;6.60;99.90;;;;;;5050995;28;20252;-68
2022/12/21 09:40:46;;;;;;;;;;;6.60;99.90;;;;;;5064005;28;20093;-68
2022/12/21 09:43:17;;;;;;;;;;;6.60;99.90;;;;;;5056011;28;19988;-68
2022/12/21 09:45:48;;;;;;;;;;;6.60;99.90;;;;;;5062671;28;19975;-68
2022/12/21 09:48:18;;;;;;;;;;;6.60;99.90;;;;;;5060932;28;19984;-68
2022/12/21 09:50:46;;;;;;;;;;;6.60;99.90;;;;;;5064468;28;19921;-67
2022/12/21 09:53:16;;;;;;;;;;;6.60;99.90;;;;;;5064165;28;19952;-68
2022/12/21 09:55:45;;;;;;;;;;;6.70;99.90;;;;;;5063883;28;19939;-68
2022/12/21 09:58:21;;;;;;;;;;;6.70;99.90;;;;;;5060809;28;19927;-68
2022/12/21 10:00:49;;;;;;;;;;;6.70;99.90;;;;;;5064441;28;19999;-67
2022/12/21 10:03:26;;;;;;;;;;;6.70;99.90;;;;;;5064143;28;20302;-68
2022/12/21 10:05:59;;;;;;;;;;;6.70;99.90;;;;;;5063662;28;19927;-67
2022/12/21 10:08:40;;;;;;;;;;;6.70;99.90;;;;;;5064148;28;19987;-67
2022/12/21 10:11:15;;;;;;;;;;;6.70;99.90;;;;;;5061499;28;20007;-67
2022/12/21 10:13:45;;;;;;;;;;;6.80;99.90;;;;;;5062281;28;20180;-67
2022/12/21 10:16:18;;;;;;;;;;;6.80;99.90;;;;;;5062084;28;20216;-68
2022/12/21 10:18:48;;;;;;;;;;;6.80;99.90;;;;;;5063068;28;20091;-68
2022/12/21 10:21:21;;;;;;;;;;;6.90;99.90;;;;;;5062494;28;20153;-68
2022/12/21 10:23:49;;;;;;;;;;;6.90;99.90;;;;;;5063198;28;19989;-67
2022/12/21 10:26:20;;;;;;;;;;;6.90;99.90;;;;;;5062606;28;20123;-68
2022/12/21 10:28:50;;;;;;;;;;;6.90;99.90;;;;;;5062123;28;19984;-67
2022/12/21 10:31:19;;;;;;;;;;;6.90;99.90;;;;;;5063644;28;20127;-67
2022/12/21 10:33:48;;;;;;;;;;;6.90;99.90;;;;;;5063259;28;20032;-68
2022/12/21 10:36:16;;;;;;;;;;;6.90;99.90;;;;;;5062632;28;19943;-67
2022/12/21 10:38:43;;;;;;;;;;;6.90;99.90;;;;;;5063408;28;19959;-67
2022/12/21 10:41:14;;;;;;;;;;;7.00;99.90;;;;;;5063629;28;19927;-67
2022/12/21 10:43:44;;;;;;;;;;;7.00;99.90;;;;;;5060792;28;19980;-67
2022/12/21 10:46:11;;;;;;;;;;;7.00;99.90;;;;;;5062296;28;19988;-68
2022/12/21 10:48:38;;;;;;;;;;;6.90;99.90;;;;;;5056070;28;19987;-68
2022/12/21 10:51:12;;;;;;;;;;;7.00;99.90;;;;;;5063060;28;19924;-68
2022/12/21 10:53:38;;;;;;;;;;;7.00;99.90;;;;;;5063573;28;19921;-68
2022/12/21 10:56:06;;;;;;;;;;;7.10;99.90;;;;;;5062753;28;19956;-67
2022/12/21 10:58:35;;;;;;;;;;;7.10;99.90;;;;;;5062974;28;19921;-67
2022/12/21 11:01:04;;;;;;;;;;;7.10;99.90;;;;;;5063181;28;19921;-67
2022/12/21 11:03:31;;;;;;;;;;;7.10;99.90;;;;;;5063468;28;19971;-67
2022/12/21 11:05:58;;;;;;;;;;;7.10;99.90;;;;;;5062214;28;19929;-68
2022/12/21 11:08:26;;;;;;;;;;;7.20;99.90;;;;;;5062966;28;19921;-68
2022/12/21 11:10:55;;;;;;;;;;;7.20;99.90;;;;;;5064865;28;19920;-68
2022/12/21 11:13:22;;;;;;;;;;;7.20;99.90;;;;;;5067051;28;19921;-68
2022/12/21 11:15:56;;;;;;;;;;;7.20;99.90;;;;;;5066413;28;19927;-68
2022/12/21 11:18:33;;;;;;;;;;;7.20;99.90;;;;;;5066629;28;19927;-67
2022/12/21 11:21:00;;;;;;;;;;;7.20;99.90;;;;;;5067338;28;19927;-68
2022/12/21 11:23:27;;;;;;;;;;;7.30;99.90;;;;;;5066025;28;19927;-68
2022/12/21 11:25:54;;;;;;;;;;;7.30;99.90;;;;;;5066441;28;19963;-67
2022/12/21 11:28:21;;;;;;;;;;;7.40;99.90;;;;;;5066302;28;20011;-68
2022/12/21 11:30:51;;;;;;;;;;;7.40;99.90;;;;;;5066729;28;19920;-67
2022/12/21 11:33:18;;;;;;;;;;;7.50;99.90;;;;;;5066670;28;20220;-68
2022/12/21 11:36:00;;;;;;;;;;;7.50;99.90;;;;;;5066568;28;19992;-68
2022/12/21 11:38:33;;;;;;;;;;;7.60;99.90;;;;;;5065919;28;19921;-68
2022/12/21 11:41:00;;;;;;;;;;;7.60;99.90;;;;;;5067086;28;19971;-67
2022/12/21 11:43:27;;;;;;;;;;;7.70;99.90;;;;;;5066702;28;19987;-68
2022/12/21 11:45:58;;;;;;;;;;;7.70;99.90;;;;;;5066542;28;19943;-68
2022/12/21 11:48:32;;;;;;;;;;;7.80;99.90;;;;;;5065863;28;20153;-68
2022/12/21 11:51:06;;;;;;;;;;;7.80;99.90;;;;;;5066710;28;20296;-68
2022/12/21 11:53:42;;;;;;;;;;;7.90;99.90;;;;;;5066443;28;19920;-68
2022/12/21 11:56:14;;;;;;;;;;;7.90;99.90;;;;;;5064441;28;20008;-68
2022/12/21 11:58:47;;;;;;;;;;;7.90;99.90;;;;;;5065861;28;20204;-68
2022/12/21 12:01:18;;;;;;;;;;;8.00;99.90;;;;;;5056815;28;19920;-68
2022/12/21 12:03:51;;;;;;;;;;;8.00;99.90;;;;;;5065562;28;19988;-68
2022/12/21 12:06:24;;;;;;;;;;;8.00;99.90;;;;;;5063235;28;20151;-67
2022/12/21 12:09:02;;;;;;;;;;;8.00;99.90;;;;;;5064797;28;19920;-67
2022/12/21 12:11:35;;;;;;;;;;;8.10;99.90;;;;;;5066340;28;19943;-68
2022/12/21 12:14:08;;;;;;;;;;;8.10;99.90;;;;;;5065713;28;19927;-68
2022/12/21 12:16:40;;;;;;;;;;;8.10;99.90;;;;;;5065406;28;19988;-68
2022/12/21 12:19:11;;;;;;;;;;;8.10;99.90;;;;;;5065701;28;19948;-69
2022/12/21 12:21:44;;;;;;;;;;;8.20;99.90;;;;;;5060818;28;19921;-68
2022/12/21 12:24:19;;;;;;;;;;;8.10;99.90;;;;;;5065546;28;19983;-67
2022/12/21 12:26:52;;;;;;;;;;;8.20;99.90;;;;;;5065595;28;19921;-68
2022/12/21 12:29:37;;;;;;;;;;;8.20;99.90;;;;;;5066115;28;19921;-68
2022/12/21 12:32:12;;;;;;;;;;;8.20;99.90;;;;;;5065450;28;19920;-67
2022/12/21 12:34:51;;;;;;;;;;;8.30;99.90;;;;;;5065643;28;20310;-68
2022/12/21 12:37:22;;;;;;;;;;;8.30;99.90;;;;;;5064978;28;19942;-68
2022/12/21 12:39:55;;;;;;;;;;;8.40;99.90;;;;;;5065569;28;19989;-68
2022/12/21 12:42:25;;;;;;;;;;;8.30;99.90;;;;;;5063440;28;19948;-68
2022/12/21 12:44:58;;;;;;;;;;;8.30;99.90;;;;;;5065439;28;20113;-68
2022/12/21 12:47:29;;;;;;;;;;;8.30;99.90;;;;;;5064490;28;19921;-68
2022/12/21 12:50:06;;;;;;;;;;;8.40;99.90;;;;;;5065800;28;19921;-68
2022/12/21 12:52:39;;;;;;;;;;;8.40;99.90;;;;;;5065348;28;19921;-68
2022/12/21 12:55:12;;;;;;;;;;;8.40;99.90;;;;;;5065745;28;19927;-68
2022/12/21 12:57:45;;;;;;;;;;;8.40;99.90;;;;;;5052435;28;20148;-68
2022/12/21 13:00:13;;;;;;;;;;;8.40;99.90;;;;;;5065285;28;19979;-68
2022/12/21 13:02:44;;;;;;;;;;;8.50;99.90;;;;;;5046032;28;19921;-69
2022/12/21 13:05:18;;;;;;;;;;;8.50;99.90;;;;;;5057126;28;19928;-68
2022/12/21 13:07:50;;;;;;;;;;;8.50;99.90;;;;;;5063680;28;19948;-68
2022/12/21 13:10:21;;;;;;;;;;;8.50;99.90;;;;;;5058699;28;19921;-68
2022/12/21 13:12:51;;;;;;;;;;;8.60;99.90;;;;;;5064173;28;19921;-68
2022/12/21 13:15:20;;;;;;;;;;;8.70;99.90;;;;;;5064006;28;19921;-69
2022/12/21 13:17:52;;;;;;;;;;;8.70;99.90;;;;;;5064301;28;19959;-68
2022/12/21 13:20:19;;;;;;;;;;;8.70;99.90;;;;;;5064884;28;19956;-67
2022/12/21 13:22:49;;;;;;;;;;;8.70;99.90;;;;;;5065089;28;20007;-68
2022/12/21 13:25:19;;;;;;;;;;;8.70;99.90;;;;;;5064913;28;19975;-67
2022/12/21 13:27:49;;;;;;;;;;;8.70;99.90;;;;;;5064129;28;19952;-68
2022/12/21 13:30:17;;;;;;;;;;;8.60;99.90;;;;;;5064909;28;20290;-68
2022/12/21 13:32:46;;;;;;;;;;;8.60;99.90;;;;;;5060740;28;19921;-68
2022/12/21 13:35:19;;;;;;;;;;;8.70;99.90;;;;;;5064692;28;19920;-68
2022/12/21 13:37:47;;;;;;;;;;;8.70;99.90;;;;;;5063110;28;19921;-68
2022/12/21 13:40:15;;;;;;;;;;;8.70;99.90;;;;;;5064173;28;20307;-68
2022/12/21 13:42:46;;;;;;;;;;;8.80;99.90;;;;;;5063918;28;20228;-68
2022/12/21 13:45:18;;;;;;;;;;;8.80;99.90;;;;;;5064004;28;19921;-68
2022/12/21 13:47:46;;;;;;;;;;;8.80;99.90;;;;;;5063270;28;20359;-67
2022/12/21 13:50:20;;;;;;;;;;;8.90;99.90;;;;;;5064496;28;19984;-67
2022/12/21 13:52:49;;;;;;;;;;;8.90;99.90;;;;;;5063677;28;19921;-68
2022/12/21 13:55:20;;;;;;;;;;;8.90;99.90;;;;;;5064368;28;19988;-68
2022/12/21 13:57:53;;;;;;;;;;;8.90;99.90;;;;;;5062792;28;19979;-68
2022/12/21 14:00:23;;;;;;;;;;;8.90;99.90;;;;;;5063668;28;19956;-67
2022/12/21 14:02:52;;;;;;;;;;;8.90;99.90;;;;;;5044374;28;20112;-67
2022/12/21 14:05:20;;;;;;;;;;;8.90;99.90;;;;;;5061157;28;19967;-67
2022/12/21 14:07:55;;;;;;;;;;;8.90;99.90;;;;;;5063250;28;20212;-68
2022/12/21 14:10:26;;;;;;;;;;;8.90;99.90;;;;;;5054730;28;20283;-68
2022/12/21 14:13:02;;;;;;;;;;;8.90;99.90;;;;;;5062469;28;19927;-67
2022/12/21 14:15:38;;;;;;;;;;;9.00;99.90;;;;;;5063425;28;19921;-67
2022/12/21 14:18:09;;;;;;;;;;;8.90;99.90;;;;;;5063067;28;19979;-68
2022/12/21 14:20:38;;;;;;;;;;;8.80;99.90;;;;;;5063331;28;20227;-66
2022/12/21 14:23:07;;;;;;;;;;;8.80;99.90;;;;;;5063077;28;20381;-72
2022/12/21 14:25:35;;;;;;;;;;;8.80;99.90;;;;;;5063404;28;20008;-69
2022/12/21 14:28:17;;;;;;;;;;;8.80;99.90;;;;;;5063219;28;19956;-68
2022/12/21 14:30:48;;;;;;;;;;;8.80;99.90;;;;;;5063892;28;19956;-68
2022/12/21 14:33:18;;;;;;;;;;;8.80;99.90;;;;;;5063736;28;19984;-68
2022/12/21 14:35:45;;;;;;;;;;;8.80;99.90;;;;;;5063388;28;19975;-67
2022/12/21 14:38:26;;;;;;;;;;;8.80;99.90;;;;;;5062915;28;20174;-68
2022/12/21 14:41:15;;;;;;;;;;;8.80;99.90;;;;;;5062561;28;20193;-70
2022/12/21 14:43:57;;;;;;;;;;;8.80;99.90;;;;;;5057841;28;19927;-69
2022/12/21 14:46:28;;;;;;;;;;;8.80;99.90;;;;;;5062360;28;19952;-69
2022/12/21 14:49:05;;;;;;;;;;;8.80;99.90;;;;;;5063015;28;19980;-68
2022/12/21 14:51:47;;;;;;;;;;;8.70;99.90;;;;;;5062614;28;19980;-68
2022/12/21 14:54:14;;;;;;;;;;;8.70;99.90;;;;;;5063274;28;19925;-69
2022/12/21 14:56:41;;;;;;;;;;;8.60;99.90;;;;;;5062158;28;20220;-68